Madison, WI

9:53 PM CDT on August 30, 2014 (GMT -0500)
Atmospheric, Oceanic and Space Sciences Building | Change Station
CLOSE
Current Station
Personal Weather Station
Location: Madison, WI
Elevation: 896 ft
Nearby Weather Stations

Elev 896 ft 43.07 °N, 89.41 °W | Updated 3 minutes ago

Scattered Clouds
Scattered Clouds
73.0 °F
Feels Like 74 °F
N
8.9
Wind Variable Wind from West

Today
High -- | Low -- °F
--% Chance of Precip.
Yesterday
High -- | Low -- °F
Precip. -- in
6:19 AM 7:35 PM
Waxing Crescent, 26% visible
Pressure 29.86 in
Visibility 10.0 miles
Clouds Few 5000 ft
Scattered Clouds 25000 ft
Heat Index 74 °F
Dew Point 66 °F
Humidity 77%
Rainfall 0.27 in
Snow Depth Not available.
UV 0 out of 12
Pollen 2.90 out of 12
PM2.5 Good
Flu Activity Not available.
METAR KMSN 310153Z 00000KT 10SM FEW050 SCT250 21/18 A2988 RMK AO2 SLP112 T02060183

More Conditions Fewer Conditions

Pressure 29.86 in
Visibility 10.0 miles
Clouds Few 5000 ft
Scattered Clouds 25000 ft
Heat Index 74 °F
Dew Point 66 °F
Humidity 77%
Rainfall 0.27 in
Snow Depth Not available.
UV 0 out of 12
Pollen 2.90 out of 12
PM2.5 Good
Flu Activity Not available.
METAR KMSN 310153Z 00000KT 10SM FEW050 SCT250 21/18 A2988 RMK AO2 SLP112 T02060183

More Conditions Fewer Conditions

10-Day Weather Forecast

Almanac

Astronomy

Aug. 30, 2014 Rise Set
Actual Time 6:19 AM CDT 7:35 PM CDT
Civil Twilight 5:50 AM CDT 8:05 PM CDT
Nautical Twilight 5:14 AM CDT 8:40 PM CDT
Astronomical Twilight 4:37 AM CDT 9:17 PM CDT
Moon 11:15 AM CDT (8/30) 10:01 PM CDT (8/30)
Length of Visible Light 14h 14m
Length of Day
13h 16m
Tomorrow will be 2m 49s shorter.
Waxing Crescent, 26% of the Moon is Illuminated
Today
Waxing Crescent
Sep 2
First Quarter
Sep 8
Full
Sep 15
Last Quarter
Sep 24
New

Today's Extremes

State Highs State Lows

Community

WunderPhotos

Upload Photos

1,748,749 photos uploaded!

Nearby

Air Quality

  Air Quality AQ Index Pollutant
Yesterday Good
PM2.5
Yesterday Good
OZONE
Current Good
PM2.5
Saturday Good
OZONE
Saturday Good
PM2.5
Sunday Moderate
OZONE
Sunday Moderate
PM2.5
Monday Good
OZONE
Monday Good
PM2.5
Tuesday Good
OZONE
Tuesday Good
PM2.5

Snow Depth

Station Depth Elevation
No new snow has been reported.

Earthquake Activity

City Distance Mag. Time & Date
No recent earthquake activity has been reported nearby.
Minimum magnitude displayed is 2.5.

Coastal Water Temperatures

Place Temperature
No Stations Reporting

Nearby Weather Stations